Norfolk, CT (06058)

5:38 PM EDT on May 24, 2017 (GMT -0400)
Great Mountain Forest | | Change Station

Elev 1403 ft 41.97 °N, 73.23 °W | Updated 13 seconds ago

Mostly Cloudy
Mostly Cloudy
66.7 °F
Feels Like 66.7 °F
N
0.0
Wind Variable Wind from South
Gusts 1.0 mph

Today
High -- | Low -- °F
--% Chance of Precip.
Yesterday
High -- | Low -- °F
Precip. -- in
Pressure 29.78 in
Visibility 10.0 miles
Clouds Scattered Clouds 5500 ft
Scattered Clouds 11000 ft
Mostly Cloudy 14000 ft
Mostly Cloudy 22000 ft
Mostly Cloudy 25000 ft
Dew Point 50 °F
Humidity 55%
Rainfall 0.00 in
Snow Depth Not available.
5:24 AM 8:15 PM
Waning Crescent, 1% visible
METAR KBDL 242051Z 04008KT 10SM SCT055 SCT110 BKN140 BKN220 BKN250 22/09 A2978 RMK AO2 SLP082 T02220089 53001
Pressure 29.78 in
Visibility 10.0 miles
Clouds Scattered Clouds 5500 ft
Scattered Clouds 11000 ft
Mostly Cloudy 14000 ft
Mostly Cloudy 22000 ft
Mostly Cloudy 25000 ft
Dew Point 50 °F
Humidity 55%
Rainfall 0.00 in
Snow Depth Not available.
5:24 AM 8:15 PM
Waning Crescent, 1% visible
METAR KBDL 242051Z 04008KT 10SM SCT055 SCT110 BKN140 BKN220 BKN250 22/09 A2978 RMK AO2 SLP082 T02220089 53001

Get Severe Weather Alerts

Thanks for signing up!

Be on the lookout for a verification email in your inbox.

You'll start receiving the daily forecast at 6 AM.

×

10-Day Weather Forecast

Almanac

Astronomy

May. 24, 2017 Rise Set
Actual Time
Civil Twilight
Nautical Twilight
Astronomical Twilight
Moon
Length of Visible Light
Length of Day
Tomorrow will be .
, % of the Moon is Illuminated

Today's Extremes

State Highs State Lows

Community

WunderPhotos

Category 6

Welcome to Category 6. This is the collective home for Weather Underground's featured writeups by Dr. Jeff Masters (right), Bob Henson (left), Chris Burt, and other regular contributors.

Nearby

Air Quality

  Air Quality AQ Index Pollutant
Not available.

Snow Depth

Station Depth Elevation

Earthquake Activity

City Distance Mag. Time & Date
Minimum magnitude displayed is 2.5.

Coastal Water Temperatures

Place Temperature

Stations

Nearby Weather Stations

Station Location Temp. Windchill Dew Point Humidity Wind Precip. Elev Updated Type
                   

Watches & Warnings

There are currently no watches in effect.